Mount Ida, AR

1:33 AM CDT on July 12, 2014 (GMT -0500)
Mount Ida (KMWT) Elev 702 ft | 34.55 °N, 93.58 °W | Change Station

Current weather conditions updated 40 minutes ago

Clear
Clear
74 °F
Feels Like 74 °F
N
0
Wind Variable Wind from North

Today is forecast to be Warmer than yesterday.

Today
High -- | Low -- °F
--% Chance of Precip.
Yesterday
High -- | Low -- °F
Precip. -- in
6:10 AM 8:28 PM
Full, 100% visible
Pressure 30.11 in
Visibility 5.0 miles
Clouds Clear
Dew Point 72 °F
Humidity 93%
Rainfall 0.00 in
Snow Depth Not available.
UV 0 out of 12
Pollen 3.60 out of 12
Air Quality Not available.
Flu Activity No Activity
METAR KMWT 120553Z AUTO 00000KT 5SM BR CLR 23/22 A3015 RMK AO2 SLP196 T02330222 10306 20233 403280211 51011

More Conditions Fewer Conditions

Pressure 30.11 in
Visibility 5.0 miles
Clouds Clear
Dew Point 72 °F
Humidity 93%
Rainfall 0.00 in
Snow Depth Not available.
UV 0 out of 12
Pollen 3.60 out of 12
Air Quality Not available.
Flu Activity No Activity
METAR KMWT 120553Z AUTO 00000KT 5SM BR CLR 23/22 A3015 RMK AO2 SLP196 T02330222 10306 20233 403280211 51011

More Conditions Fewer Conditions

10-Day Weather Forecast

Almanac

Astronomy

Jul. 12, 2014 Rise Set
Actual Time 6:10 AM CDT 8:28 PM CDT
Civil Twilight 5:41 AM CDT 8:57 PM CDT
Nautical Twilight 5:06 AM CDT 9:32 PM CDT
Astronomical Twilight 4:27 AM CDT 10:11 PM CDT
Moon 8:35 PM CDT 6:27 AM CDT
Length of Visible Light 15h 15m
Length of Day
14h 17m
Tomorrow will be 0m 58s shorter.
Full, 100% of the Moon is Illuminated
Today
Full
Jul 12
Full
Jul 18
Last Quarter
Jul 26
New
Aug 3
First Quarter

Today's Extremes

State Highs State Lows

Community

WunderPhotos

Upload Photos

1,732,718 photos uploaded!

Nearby

Snow Depth

Station Depth Elevation
No new snow has been reported.

Earthquake Activity

City Distance Mag. Time & Date
No recent earthquake activity has been reported nearby.
Minimum magnitude displayed is 2.5.

Coastal Water Temperatures

Place Temperature
No Stations Reporting

Nearby Weather Stations

Station Location Temp. Heat Index Dew Point Humidity Wind Precip. Elev Updated Type
Caddo River, Caddo Gap, AR 72.9 °F - 73 °F 99% SSE  at  0.0 mph - / hr 587 ft 1:21 AM CDT Normal
Paradise South Golf Course, Norman, AR 74.8 °F 72 °F 74 °F 98% North  at  0.0 mph 0.00 in / hr 700 ft 1:33 AM CDT Rapid Fire
Mount Moriah Road, Bonnerdale, AR 74.3 °F 71 °F 74 °F 99% North  at  0.0 mph 0.00 in / hr 659 ft 1:33 AM CDT Rapid Fire
Pearcy, AR, Pearcy, AR 74.1 °F 70 °F 74 °F 99% North  at  0.0 mph 0.00 in / hr 545 ft 1:28 AM CDT Normal
RAWS ODEN AR, Oden, AR 74 °F 71 °F 72 °F 94% NE  at  1 mph 0.00 in / hr 896 ft 12:27 AM CDT MADIS
Hot Springs, AR 79.3 °F 79 °F 42 °F 26% North  at  0.0 mph 0.00 in / hr 443 ft 1:00 AM CDT Normal
RAWS JESSIEVILLE AR, Jessieville, AR 70 °F - 68 °F 94% North  at  0 mph 0.00 in / hr 674 ft 1:02 AM CDT MADIS

Show More Stations Show Fewer Stations